createdAt,value
2023-04-16T00:00:03.883Z,100.00
2023-04-16T00:02:38.728Z,100.00
2023-04-16T00:05:06.955Z,100.00
2023-04-16T00:07:34.538Z,100.00
2023-04-16T00:10:02.259Z,100.00
2023-04-16T00:12:31.249Z,100.00
2023-04-16T00:14:58.827Z,100.00
2023-04-16T00:17:26.659Z,100.00
2023-04-16T00:19:54.221Z,100.00
2023-04-16T00:22:21.742Z,100.00
2023-04-16T00:24:49.299Z,100.00
2023-04-16T00:27:16.879Z,100.00
2023-04-16T00:29:45.794Z,100.00
2023-04-16T00:32:13.330Z,100.00
2023-04-16T00:34:40.861Z,100.00
2023-04-16T00:37:08.386Z,100.00
2023-04-16T00:39:36.095Z,100.00
2023-04-16T00:42:03.653Z,100.00
2023-04-16T00:44:31.166Z,100.00
2023-04-16T00:47:00.452Z,100.00
2023-04-16T00:49:28.426Z,100.00
2023-04-16T00:51:57.775Z,100.00
2023-04-16T00:54:26.565Z,100.00
2023-04-16T00:56:54.328Z,100.00
2023-04-16T00:59:22.764Z,100.00
2023-04-16T01:01:50.437Z,100.00
2023-04-16T01:04:19.500Z,100.00
2023-04-16T01:06:47.133Z,100.00
2023-04-16T01:09:15.237Z,100.00
2023-04-16T01:11:42.808Z,100.00
2023-04-16T01:14:10.351Z,100.00
2023-04-16T01:16:38.876Z,100.00
2023-04-16T01:19:07.777Z,100.00
2023-04-16T01:21:36.882Z,100.00
2023-04-16T01:24:05.129Z,100.00
2023-04-16T01:26:34.094Z,100.00
2023-04-16T01:29:01.659Z,100.00
2023-04-16T01:31:29.236Z,100.00
2023-04-16T01:34:02.387Z,100.00
2023-04-16T01:36:29.915Z,100.00
2023-04-16T01:38:59.251Z,100.00
2023-04-16T01:41:27.675Z,100.00
2023-04-16T01:43:55.250Z,100.00
2023-04-16T01:46:29.217Z,100.00
2023-04-16T01:48:57.400Z,100.00
2023-04-16T01:51:25.556Z,100.00
2023-04-16T01:53:53.119Z,100.00
2023-04-16T01:56:22.032Z,100.00
2023-04-16T01:58:49.621Z,100.00
2023-04-16T02:01:19.087Z,100.00
2023-04-16T02:03:48.246Z,100.00
2023-04-16T02:06:16.474Z,100.00
2023-04-16T02:08:44.105Z,100.00
2023-04-16T02:11:11.682Z,100.00
2023-04-16T02:13:41.124Z,100.00
2023-04-16T02:16:09.030Z,100.00
2023-04-16T02:18:56.924Z,100.00
2023-04-16T02:21:25.851Z,100.00
2023-04-16T02:23:53.538Z,100.00
2023-04-16T02:26:29.059Z,100.00
2023-04-16T02:29:01.674Z,100.00
2023-04-16T02:31:37.161Z,100.00
2023-04-16T02:34:06.091Z,100.00
2023-04-16T02:36:33.731Z,100.00
2023-04-16T02:39:01.426Z,100.00
2023-04-16T02:41:29.112Z,100.00
2023-04-16T02:43:57.066Z,100.00
2023-04-16T02:46:26.141Z,100.00
2023-04-16T02:48:53.891Z,100.00
2023-04-16T02:51:21.382Z,100.00
2023-04-16T02:53:48.926Z,100.00
2023-04-16T02:56:16.462Z,100.00
2023-04-16T02:58:43.973Z,100.00
2023-04-16T03:01:11.560Z,100.00
2023-04-16T03:03:40.906Z,100.00
2023-04-16T03:06:08.435Z,100.00
2023-04-16T03:08:35.956Z,100.00
2023-04-16T03:11:03.586Z,100.00
2023-04-16T03:13:31.125Z,100.00
2023-04-16T03:15:58.650Z,100.00
2023-04-16T03:18:26.261Z,100.00
2023-04-16T03:20:55.283Z,100.00
2023-04-16T03:23:22.834Z,100.00
2023-04-16T03:25:51.190Z,100.00
2023-04-16T03:28:19.430Z,100.00
2023-04-16T03:30:51.712Z,100.00
2023-04-16T03:33:19.680Z,100.00
2023-04-16T03:35:47.393Z,100.00
2023-04-16T03:38:16.741Z,100.00
2023-04-16T03:40:44.344Z,100.00
2023-04-16T03:43:11.900Z,100.00
2023-04-16T03:45:45.085Z,100.00
2023-04-16T03:48:13.564Z,100.00
2023-04-16T03:50:41.258Z,100.00
2023-04-16T03:53:10.311Z,100.00
2023-04-16T03:55:40.207Z,100.00
2023-04-16T03:58:09.250Z,100.00
2023-04-16T04:00:36.809Z,100.00
2023-04-16T04:03:11.336Z,100.00
2023-04-16T04:05:40.961Z,100.00
2023-04-16T04:08:10.748Z,100.00
2023-04-16T04:10:39.958Z,100.00
2023-04-16T04:13:08.646Z,100.00
2023-04-16T04:15:38.205Z,100.00
2023-04-16T04:18:06.145Z,100.00
2023-04-16T04:20:33.713Z,100.00
2023-04-16T04:23:02.521Z,100.00
2023-04-16T04:25:31.003Z,100.00
2023-04-16T04:28:00.760Z,100.00
2023-04-16T04:30:29.737Z,100.00
2023-04-16T04:32:57.393Z,100.00
2023-04-16T04:35:25.051Z,100.00
2023-04-16T04:37:53.514Z,100.00
2023-04-16T04:40:21.852Z,100.00
2023-04-16T04:42:49.421Z,100.00
2023-04-16T04:45:18.486Z,100.00
2023-04-16T04:47:46.190Z,100.00
2023-04-16T04:50:13.858Z,100.00
2023-04-16T04:52:42.029Z,100.00
2023-04-16T04:55:09.945Z,100.00
2023-04-16T04:57:37.538Z,100.00
2023-04-16T05:00:07.078Z,100.00
2023-04-16T05:02:44.276Z,100.00
2023-04-16T05:05:12.066Z,100.00
2023-04-16T05:07:39.584Z,100.00
2023-04-16T05:10:08.609Z,100.00
2023-04-16T05:12:36.285Z,100.00
2023-04-16T05:15:04.024Z,100.00
2023-04-16T05:17:31.639Z,100.00
2023-04-16T05:20:01.246Z,100.00
2023-04-16T05:22:28.765Z,100.00
2023-04-16T05:24:56.352Z,100.00
2023-04-16T05:27:24.055Z,100.00
2023-04-16T05:29:51.605Z,100.00
2023-04-16T05:32:19.230Z,100.00
2023-04-16T05:34:46.772Z,100.00
2023-04-16T05:37:15.724Z,100.00
2023-04-16T05:39:43.262Z,100.00
2023-04-16T05:42:10.830Z,100.00
2023-04-16T05:44:38.447Z,100.00
2023-04-16T05:47:07.217Z,100.00
2023-04-16T05:49:34.755Z,100.00
2023-04-16T05:52:02.413Z,100.00
2023-04-16T05:54:31.273Z,100.00
2023-04-16T05:56:58.852Z,100.00
2023-04-16T05:59:26.540Z,100.00
2023-04-16T06:01:54.276Z,100.00
2023-04-16T06:04:21.885Z,100.00
2023-04-16T06:06:49.595Z,100.00
2023-04-16T06:09:18.152Z,100.00
2023-04-16T06:11:47.107Z,100.00
2023-04-16T06:14:14.869Z,100.00
2023-04-16T06:16:42.390Z,100.00
2023-04-16T06:19:10.181Z,100.00
2023-04-16T06:21:38.700Z,100.00
2023-04-16T06:24:06.990Z,100.00
2023-04-16T06:26:34.551Z,100.00
2023-04-16T06:29:03.409Z,100.00
2023-04-16T06:31:31.191Z,100.00
2023-04-16T06:33:58.862Z,100.00
2023-04-16T06:36:27.481Z,100.00
2023-04-16T06:38:55.033Z,100.00
2023-04-16T06:41:25.440Z,100.00
2023-04-16T06:43:53.232Z,100.00
2023-04-16T06:46:22.193Z,100.00
2023-04-16T06:48:49.948Z,99.83
2023-04-16T06:51:17.545Z,99.96
2023-04-16T06:53:45.162Z,99.21
2023-04-16T06:56:12.728Z,100.00
2023-04-16T06:58:40.403Z,99.63
2023-04-16T07:01:08.109Z,99.77
2023-04-16T07:03:37.310Z,99.94
2023-04-16T07:06:05.013Z,99.07
2023-04-16T07:08:32.604Z,99.79
2023-04-16T07:11:00.281Z,99.12
2023-04-16T07:13:27.987Z,99.02
2023-04-16T07:15:55.541Z,99.06
2023-04-16T07:18:24.244Z,98.20
2023-04-16T07:20:53.165Z,99.87
2023-04-16T07:23:20.775Z,98.84
2023-04-16T07:25:48.307Z,98.61
2023-04-16T07:28:17.496Z,97.24
2023-04-16T07:30:45.167Z,97.00
2023-04-16T07:33:12.813Z,97.22
2023-04-16T07:35:40.405Z,97.22
2023-04-16T07:38:09.273Z,96.59
2023-04-16T07:40:37.625Z,96.38
2023-04-16T07:43:05.173Z,96.85
2023-04-16T07:45:32.698Z,96.81
2023-04-16T07:48:00.437Z,96.49
2023-04-16T07:50:28.071Z,95.90
2023-04-16T07:52:55.596Z,96.16
2023-04-16T07:55:24.842Z,96.02
2023-04-16T07:57:52.454Z,95.08
2023-04-16T08:00:20.105Z,95.06
2023-04-16T08:02:47.931Z,94.76
2023-04-16T08:05:15.652Z,95.25
2023-04-16T08:07:43.385Z,94.17
2023-04-16T08:10:11.195Z,94.52
2023-04-16T08:12:40.704Z,94.68
2023-04-16T08:15:09.287Z,94.74
2023-04-16T08:17:37.609Z,95.01
2023-04-16T08:20:06.362Z,94.81
2023-04-16T08:22:34.344Z,93.43
2023-04-16T08:25:01.886Z,93.50
2023-04-16T08:27:29.450Z,94.60
2023-04-16T08:29:58.304Z,93.29
2023-04-16T08:32:27.086Z,93.99
2023-04-16T08:34:54.616Z,95.01
2023-04-16T08:37:22.206Z,94.87
2023-04-16T08:39:49.726Z,94.56
2023-04-16T08:42:24.789Z,94.29
2023-04-16T08:44:58.250Z,92.73
2023-04-16T08:47:32.062Z,93.21
2023-04-16T08:50:00.192Z,93.15
2023-04-16T08:52:31.681Z,93.08
2023-04-16T08:55:06.252Z,92.04
2023-04-16T08:57:41.427Z,91.90
2023-04-16T09:00:10.096Z,91.65
2023-04-16T09:02:39.386Z,91.57
2023-04-16T09:05:08.840Z,92.25
2023-04-16T09:07:37.489Z,91.38
2023-04-16T09:10:08.040Z,92.97
2023-04-16T09:12:36.654Z,90.29
2023-04-16T09:15:06.055Z,92.02
2023-04-16T09:17:35.209Z,91.93
2023-04-16T09:20:05.758Z,90.04
2023-04-16T09:22:33.300Z,89.96
2023-04-16T09:25:00.952Z,90.86
2023-04-16T09:27:29.181Z,90.67
2023-04-16T09:29:56.701Z,89.89
2023-04-16T09:32:27.147Z,88.90
2023-04-16T09:34:57.182Z,91.08
2023-04-16T09:37:26.543Z,91.00
2023-04-16T09:39:56.329Z,91.68
2023-04-16T09:42:27.049Z,90.27
2023-04-16T09:44:56.277Z,91.18
2023-04-16T09:47:27.174Z,91.25
2023-04-16T09:49:59.903Z,91.48
2023-04-16T09:52:28.779Z,92.24
2023-04-16T09:54:56.304Z,91.44
2023-04-16T09:57:24.841Z,94.85
2023-04-16T09:59:54.628Z,92.98
2023-04-16T10:02:23.597Z,90.93
2023-04-16T10:04:52.523Z,91.19
2023-04-16T10:07:20.535Z,92.40
2023-04-16T10:09:50.551Z,92.55
2023-04-16T10:12:18.112Z,92.35
2023-04-16T10:14:46.905Z,92.89
2023-04-16T10:17:17.511Z,91.57
2023-04-16T10:19:46.450Z,92.49
2023-04-16T10:22:15.283Z,90.86
2023-04-16T10:24:44.125Z,92.12
2023-04-16T10:27:13.335Z,91.89
2023-04-16T10:29:41.615Z,92.69
2023-04-16T10:32:09.426Z,93.05
2023-04-16T10:34:37.237Z,92.49
2023-04-16T10:37:05.054Z,92.44
2023-04-16T10:39:37.275Z,92.70
2023-04-16T10:42:09.225Z,93.30
2023-04-16T10:44:38.281Z,92.97
2023-04-16T10:47:12.479Z,93.38
2023-04-16T10:49:40.302Z,92.17
2023-04-16T10:52:13.118Z,92.78
2023-04-16T10:54:41.409Z,92.81
2023-04-16T10:57:12.113Z,93.18
2023-04-16T10:59:44.020Z,92.72
2023-04-16T11:02:14.967Z,91.98
2023-04-16T11:04:44.362Z,92.61
2023-04-16T11:07:20.398Z,92.66
2023-04-16T11:09:54.123Z,92.87
2023-04-16T11:12:23.967Z,93.43
2023-04-16T11:14:54.077Z,94.15
2023-04-16T11:17:22.169Z,94.36
2023-04-16T11:19:49.781Z,93.18
2023-04-16T11:22:18.573Z,93.73
2023-04-16T11:24:48.305Z,92.66
2023-04-16T11:27:16.512Z,93.54
2023-04-16T11:29:46.334Z,93.05
2023-04-16T11:32:23.011Z,92.46
2023-04-16T11:34:51.027Z,92.22
2023-04-16T11:37:21.686Z,93.34
2023-04-16T11:39:53.400Z,93.29
2023-04-16T11:42:22.775Z,93.57
2023-04-16T11:44:55.240Z,93.56
2023-04-16T11:47:25.599Z,94.03
2023-04-16T11:49:53.436Z,94.79
2023-04-16T11:52:30.856Z,94.70
2023-04-16T11:54:59.306Z,95.98
2023-04-16T11:57:27.866Z,94.89
2023-04-16T12:00:02.185Z,95.03
2023-04-16T12:02:42.664Z,95.73
2023-04-16T12:05:30.120Z,94.30
2023-04-16T12:07:58.307Z,94.27
2023-04-16T12:10:26.969Z,94.14
2023-04-16T12:12:54.993Z,94.27
2023-04-16T12:15:22.557Z,94.39
2023-04-16T12:17:54.390Z,93.42
2023-04-16T12:20:22.032Z,94.05
2023-04-16T12:22:50.609Z,92.98
2023-04-16T12:25:19.166Z,93.38
2023-04-16T12:27:50.734Z,91.67
2023-04-16T12:30:22.923Z,91.06
2023-04-16T12:32:55.127Z,92.13
2023-04-16T12:35:31.465Z,91.78
2023-04-16T12:37:59.111Z,92.53
2023-04-16T12:40:27.403Z,92.39
2023-04-16T12:42:54.989Z,92.16
2023-04-16T12:45:23.128Z,91.67
2023-04-16T12:47:52.090Z,90.67
2023-04-16T12:50:19.693Z,92.72
2023-04-16T12:52:47.226Z,90.95
2023-04-16T12:55:15.332Z,91.79
2023-04-16T12:57:42.914Z,93.17
2023-04-16T13:00:14.667Z,92.17
2023-04-16T13:02:42.360Z,92.30
2023-04-16T13:05:11.406Z,91.00
2023-04-16T13:07:38.970Z,91.74
2023-04-16T13:10:07.344Z,91.61
2023-04-16T13:12:34.901Z,90.73
2023-04-16T13:15:02.483Z,91.55
2023-04-16T13:17:29.993Z,91.00
2023-04-16T13:19:57.561Z,92.02
2023-04-16T13:22:26.455Z,90.54
2023-04-16T13:24:54.054Z,92.52
2023-04-16T13:27:21.565Z,91.75
2023-04-16T13:29:49.179Z,92.10
2023-04-16T13:32:17.297Z,91.96
2023-04-16T13:34:45.014Z,91.85
2023-04-16T13:37:12.501Z,92.22
2023-04-16T13:39:41.427Z,91.10
2023-04-16T13:42:08.922Z,91.14
2023-04-16T13:44:36.486Z,92.02
2023-04-16T13:47:04.164Z,92.15
2023-04-16T13:49:35.508Z,91.32
2023-04-16T13:52:03.432Z,91.80
2023-04-16T13:54:31.100Z,92.16
2023-04-16T13:57:00.120Z,92.58
2023-04-16T13:59:27.732Z,91.78
2023-04-16T14:01:55.390Z,91.98
2023-04-16T14:04:23.471Z,91.10
2023-04-16T14:06:51.312Z,91.34
2023-04-16T14:09:18.910Z,90.95
2023-04-16T14:11:46.472Z,90.35
2023-04-16T14:14:15.519Z,91.76
2023-04-16T14:16:43.130Z,91.65
2023-04-16T14:19:11.199Z,90.30
2023-04-16T14:21:38.824Z,89.59
2023-04-16T14:24:07.155Z,90.28
2023-04-16T14:26:34.785Z,91.10
2023-04-16T14:29:02.362Z,91.46
2023-04-16T14:31:33.482Z,92.00
2023-04-16T14:34:01.186Z,92.25
2023-04-16T14:36:28.858Z,91.28
2023-04-16T14:38:56.469Z,91.86
2023-04-16T14:41:24.120Z,91.30
2023-04-16T14:43:51.635Z,92.46
2023-04-16T14:46:19.233Z,91.68
2023-04-16T14:48:48.138Z,91.91
2023-04-16T14:51:15.695Z,91.42
2023-04-16T14:53:43.269Z,92.63
2023-04-16T14:56:12.852Z,91.70
2023-04-16T14:58:42.650Z,91.24
2023-04-16T15:01:10.378Z,91.18
2023-04-16T15:03:38.275Z,90.70
2023-04-16T15:06:08.681Z,91.01
2023-04-16T15:08:36.476Z,91.53
2023-04-16T15:11:04.052Z,91.02
2023-04-16T15:13:33.879Z,91.78
2023-04-16T15:16:01.749Z,91.31
2023-04-16T15:18:29.579Z,90.29
2023-04-16T15:20:57.107Z,91.04
2023-04-16T15:23:26.506Z,90.35
2023-04-16T15:25:54.059Z,91.68
2023-04-16T15:28:21.613Z,91.58
2023-04-16T15:30:49.167Z,91.70
2023-04-16T15:33:16.741Z,91.24
2023-04-16T15:35:44.378Z,90.21
2023-04-16T15:38:11.882Z,90.65
2023-04-16T15:40:42.032Z,90.81
2023-04-16T15:43:09.633Z,90.30
2023-04-16T15:45:37.432Z,90.68
2023-04-16T15:48:06.258Z,91.19
2023-04-16T15:50:34.100Z,90.25
2023-04-16T15:53:01.738Z,90.30
2023-04-16T15:55:29.921Z,89.87
2023-04-16T15:57:58.771Z,89.81
2023-04-16T16:00:27.441Z,90.93
2023-04-16T16:02:55.077Z,90.43
2023-04-16T16:05:22.923Z,90.57
2023-04-16T16:07:50.569Z,91.65
2023-04-16T16:10:18.878Z,91.26
2023-04-16T16:12:46.767Z,90.13
2023-04-16T16:15:15.761Z,90.35
2023-04-16T16:17:43.380Z,90.71
2023-04-16T16:20:12.706Z,92.31
2023-04-16T16:22:40.560Z,91.84
2023-04-16T16:25:09.949Z,91.15
2023-04-16T16:27:37.629Z,90.91
2023-04-16T16:30:07.215Z,91.29
2023-04-16T16:32:36.485Z,91.95
2023-04-16T16:35:04.226Z,91.92
2023-04-16T16:37:31.771Z,91.95
2023-04-16T16:39:59.313Z,92.82
2023-04-16T16:42:27.176Z,92.64
2023-04-16T16:44:56.677Z,92.46
2023-04-16T16:47:25.289Z,92.19
2023-04-16T16:49:54.616Z,90.86
2023-04-16T16:52:23.798Z,91.92
2023-04-16T16:54:51.340Z,91.37
2023-04-16T16:57:20.003Z,91.34
2023-04-16T16:59:48.365Z,91.54
2023-04-16T17:02:17.114Z,92.62
2023-04-16T17:04:44.864Z,92.73
2023-04-16T17:07:13.851Z,92.64
2023-04-16T17:09:41.404Z,91.89
2023-04-16T17:12:09.150Z,92.85
2023-04-16T17:14:36.736Z,93.49
2023-04-16T17:17:04.307Z,93.25
2023-04-16T17:19:31.950Z,92.93
2023-04-16T17:21:59.451Z,93.62
2023-04-16T17:24:28.344Z,93.68
2023-04-16T17:26:55.854Z,94.03
2023-04-16T17:29:25.976Z,93.50
2023-04-16T17:31:53.847Z,93.73
2023-04-16T17:34:21.558Z,93.87
2023-04-16T17:36:50.428Z,93.65
2023-04-16T17:39:18.114Z,94.27
2023-04-16T17:41:47.073Z,94.14
2023-04-16T17:44:14.786Z,94.52
2023-04-16T17:46:42.407Z,94.40
2023-04-16T17:49:10.153Z,94.48
2023-04-16T17:51:37.710Z,95.39
2023-04-16T17:54:07.030Z,94.28
2023-04-16T17:56:34.593Z,94.46
2023-04-16T17:59:03.508Z,95.02
2023-04-16T18:01:31.091Z,95.25
2023-04-16T18:03:58.933Z,95.68
2023-04-16T18:06:27.563Z,95.79
2023-04-16T18:08:55.334Z,96.54
2023-04-16T18:11:22.909Z,96.50
2023-04-16T18:13:52.684Z,95.89
2023-04-16T18:16:22.304Z,96.27
2023-04-16T18:21:17.467Z,96.88
2023-04-16T18:23:45.037Z,97.26
2023-04-16T18:26:12.870Z,96.90
2023-04-16T18:28:40.461Z,97.17
2023-04-16T18:31:08.107Z,97.07
2023-04-16T18:36:07.875Z,97.27
2023-04-16T18:38:36.976Z,97.49
2023-04-16T18:41:16.827Z,97.68
2023-04-16T18:43:44.476Z,97.70
2023-04-16T18:46:11.991Z,97.97
2023-04-16T18:48:41.449Z,97.85
2023-04-16T18:51:09.170Z,97.24
2023-04-16T18:53:36.780Z,97.76
2023-04-16T18:56:04.412Z,97.64
2023-04-16T18:58:32.022Z,97.82
2023-04-16T19:00:59.705Z,97.93
2023-04-16T19:03:29.541Z,98.19
2023-04-16T19:05:58.704Z,97.91
2023-04-16T19:08:26.265Z,98.69
2023-04-16T19:10:53.834Z,98.35
2023-04-16T19:13:21.381Z,98.45
2023-04-16T19:15:48.962Z,98.21
2023-04-16T19:18:16.548Z,98.17
2023-04-16T19:20:44.035Z,98.19
2023-04-16T19:23:13.837Z,98.77
2023-04-16T19:25:41.412Z,99.16
2023-04-16T19:28:08.937Z,99.60
2023-04-16T19:30:36.579Z,100.00
2023-04-16T19:33:04.177Z,100.00
2023-04-16T19:35:31.740Z,100.00
2023-04-16T19:37:59.327Z,100.00
2023-04-16T19:40:28.207Z,100.00
2023-04-16T19:42:55.871Z,100.00
2023-04-16T19:45:25.936Z,100.00
2023-04-16T19:47:53.614Z,100.00
2023-04-16T19:50:21.201Z,100.00
2023-04-16T19:52:48.793Z,100.00
2023-04-16T19:55:16.478Z,100.00
2023-04-16T19:57:45.358Z,100.00
2023-04-16T20:00:13.809Z,100.00
2023-04-16T20:02:41.493Z,100.00
2023-04-16T20:05:10.212Z,100.00
2023-04-16T20:07:37.696Z,100.00
2023-04-16T20:10:05.828Z,100.00
2023-04-16T20:12:33.366Z,100.00
2023-04-16T20:15:02.233Z,100.00
2023-04-16T20:17:29.789Z,100.00
2023-04-16T20:20:00.656Z,100.00
2023-04-16T20:22:28.260Z,100.00
2023-04-16T20:24:56.314Z,100.00
2023-04-16T20:27:23.868Z,100.00
2023-04-16T20:29:51.755Z,100.00
2023-04-16T20:32:20.608Z,100.00
2023-04-16T20:34:48.734Z,100.00
2023-04-16T20:37:16.329Z,100.00
2023-04-16T20:39:45.058Z,100.00
2023-04-16T20:42:12.794Z,100.00
2023-04-16T20:44:41.156Z,100.00
2023-04-16T20:47:09.218Z,100.00
2023-04-16T20:49:40.134Z,100.00
2023-04-16T20:52:07.873Z,100.00
2023-04-16T20:54:35.574Z,100.00
2023-04-16T20:57:04.847Z,100.00
2023-04-16T20:59:32.751Z,100.00
2023-04-16T21:02:00.491Z,100.00
2023-04-16T21:04:28.150Z,100.00
2023-04-16T21:06:57.191Z,100.00
2023-04-16T21:09:24.712Z,100.00
2023-04-16T21:11:52.231Z,100.00
2023-04-16T21:14:19.784Z,100.00
2023-04-16T21:16:47.295Z,100.00
2023-04-16T21:19:14.876Z,100.00
2023-04-16T21:21:42.559Z,100.00
2023-04-16T21:24:11.571Z,100.00
2023-04-16T21:26:39.120Z,100.00
2023-04-16T21:29:06.654Z,100.00
2023-04-16T21:31:34.231Z,100.00
2023-04-16T21:34:01.794Z,100.00
2023-04-16T21:36:31.867Z,100.00
2023-04-16T21:38:59.440Z,100.00
2023-04-16T21:41:28.589Z,100.00
2023-04-16T21:43:56.164Z,100.00
2023-04-16T21:46:23.763Z,100.00
2023-04-16T21:48:51.376Z,100.00
2023-04-16T21:51:19.949Z,100.00
2023-04-16T21:53:47.448Z,100.00
2023-04-16T21:56:15.087Z,100.00
2023-04-16T21:58:43.971Z,100.00
2023-04-16T22:01:11.576Z,100.00
2023-04-16T22:03:40.438Z,100.00
2023-04-16T22:06:08.787Z,100.00
2023-04-16T22:08:36.369Z,100.00
2023-04-16T22:11:04.222Z,100.00
2023-04-16T22:13:32.665Z,100.00
2023-04-16T22:16:02.272Z,100.00
2023-04-16T22:18:32.968Z,100.00
2023-04-16T22:21:01.261Z,100.00
2023-04-16T22:23:28.848Z,100.00
2023-04-16T22:25:56.961Z,100.00
2023-04-16T22:28:24.893Z,100.00
2023-04-16T22:30:52.422Z,100.00
2023-04-16T22:33:21.252Z,100.00
2023-04-16T22:35:48.787Z,100.00
2023-04-16T22:38:16.387Z,100.00
2023-04-16T22:40:44.020Z,100.00
2023-04-16T22:43:11.494Z,100.00
2023-04-16T22:45:39.049Z,100.00
2023-04-16T22:48:06.867Z,100.00
2023-04-16T22:50:35.881Z,100.00
2023-04-16T22:53:03.420Z,100.00
2023-04-16T22:55:30.942Z,100.00
2023-04-16T22:57:58.449Z,100.00
2023-04-16T23:00:25.973Z,100.00
2023-04-16T23:02:53.616Z,100.00
2023-04-16T23:05:21.324Z,100.00
2023-04-16T23:07:50.142Z,100.00
2023-04-16T23:10:17.765Z,100.00
2023-04-16T23:12:45.399Z,100.00
2023-04-16T23:15:12.906Z,100.00
2023-04-16T23:17:40.631Z,100.00
2023-04-16T23:20:09.983Z,100.00
2023-04-16T23:22:37.490Z,100.00
2023-04-16T23:25:07.720Z,100.00
2023-04-16T23:27:35.265Z,100.00
2023-04-16T23:30:03.149Z,100.00
2023-04-16T23:32:30.781Z,100.00
2023-04-16T23:34:58.565Z,100.00
2023-04-16T23:37:26.121Z,100.00
2023-04-16T23:39:53.942Z,100.00
2023-04-16T23:42:22.815Z,100.00
2023-04-16T23:44:50.348Z,100.00
2023-04-16T23:47:18.062Z,100.00
2023-04-16T23:49:45.706Z,100.00
2023-04-16T23:52:13.284Z,100.00
2023-04-16T23:54:40.777Z,100.00
2023-04-16T23:57:08.265Z,100.00
2023-04-16T23:59:37.141Z,100.00
